Time;durP1;ratioP1;P1;durP2;ratioP2;P2;SDS_P1;SDS_P2;PMS_P1;PMS_P2;Temp;Humidity;BMP_temperature;BMP_pressure;BME280_temperature;BME280_humidity;BME280_pressure;Samples;Min_cycle;Max_cycle;Signal;HPM_P1;HPM_P2
2022/06/11 04:02:14;;;;;;;2.23;1.50;;;15.90;96.30;;;;;;5132367;23;20498;-77
2022/06/11 04:04:39;;;;;;;2.67;1.47;;;16.30;96.30;;;;;;4972560;28;20425;-76
2022/06/11 04:07:05;;;;;;;3.07;1.70;;;16.60;96.30;;;;;;4973706;28;20182;-76
2022/06/11 04:09:34;;;;;;;1.53;1.33;;;16.90;96.30;;;;;;4973220;28;20171;-77
2022/06/11 04:12:02;;;;;;;1.83;1.50;;;17.00;96.30;;;;;;4973679;28;20429;-77
2022/06/11 04:14:27;;;;;;;2.90;1.33;;;17.50;96.30;;;;;;4973769;28;20472;-77
2022/06/11 04:16:56;;;;;;;1.30;1.20;;;17.60;96.30;;;;;;4974722;28;20465;-79
2022/06/11 04:19:26;;;;;;;2.50;1.70;;;17.90;96.30;;;;;;4975990;28;20187;-78
2022/06/11 05:26:46;;;;;;;3.97;1.40;;;25.00;83.70;;;;;;5671429;23;1145255;-79
2022/06/11 05:29:26;;;;;;;1.60;1.50;;;24.10;85.60;;;;;;4992040;28;20181;-80
2022/06/11 05:31:52;;;;;;;1.37;1.20;;;24.20;85.80;;;;;;4974881;28;20483;-80
2022/06/11 05:34:18;;;;;;;2.23;1.80;;;24.60;85.10;;;;;;4992626;28;20424;-80
2022/06/11 05:36:44;;;;;;;2.03;1.20;;;24.60;85.60;;;;;;4992052;28;20661;-79
2022/06/11 05:39:09;;;;;;;5.40;1.50;;;24.20;86.70;;;;;;4994522;28;20423;-78
2022/06/11 05:41:35;;;;;;;2.53;1.40;;;24.60;85.30;;;;;;5237792;23;20484;-80
2022/06/11 05:44:01;;;;;;;2.83;1.57;;;25.00;84.40;;;;;;4974927;28;20177;-80
2022/06/11 05:46:26;;;;;;;2.07;1.60;;;25.40;83.60;;;;;;4979650;28;20204;-80
2022/06/11 05:48:58;;;;;;;2.67;1.47;;;25.30;83.00;;;;;;4979388;28;20634;-81
2022/06/11 05:51:38;;;;;;;1.60;1.20;;;25.20;84.50;;;;;;4979452;28;20354;-80
2022/06/11 05:54:09;;;;;;;2.50;1.47;;;25.50;84.40;;;;;;5000624;28;20436;-79
2022/06/11 05:56:36;;;;;;;3.47;1.93;;;25.40;84.10;;;;;;5003625;28;20480;-78
2022/06/11 05:59:07;;;;;;;2.77;1.50;;;26.10;83.90;;;;;;5000727;28;20421;-77
2022/06/11 06:01:37;;;;;;;2.37;1.43;;;26.70;81.60;;;;;;4993417;28;20432;-78
2022/06/11 06:04:03;;;;;;;2.80;1.27;;;27.40;79.50;;;;;;4985407;28;20407;-78
2022/06/11 06:06:28;;;;;;;1.73;1.37;;;27.60;78.30;;;;;;4987112;28;20416;-79
2022/06/11 06:08:54;;;;;;;3.93;1.30;;;27.10;79.70;;;;;;4983927;28;20185;-79
2022/06/11 06:11:19;;;;;;;1.63;1.33;;;28.20;79.00;;;;;;4986677;28;20197;-78
2022/06/11 06:13:48;;;;;;;2.13;1.17;;;27.50;80.10;;;;;;4986855;28;20188;-79
2022/06/11 06:16:22;;;;;;;1.53;1.20;;;28.70;76.50;;;;;;4974183;28;20569;-79
2022/06/11 06:18:49;;;;;;;3.67;1.40;;;27.60;78.30;;;;;;4960814;28;20484;-78
2022/06/11 06:21:16;;;;;;;2.33;1.50;;;28.10;78.20;;;;;;4960708;28;20445;-78
2022/06/11 06:23:42;;;;;;;2.27;1.50;;;29.20;74.90;;;;;;4962868;28;20531;-79
2022/06/11 06:26:08;;;;;;;3.43;1.30;;;28.30;76.30;;;;;;4960720;28;20842;-79
2022/06/11 06:28:34;;;;;;;10.23;1.55;;;28.30;79.10;;;;;;4958679;29;20179;-77
2022/06/11 06:31:02;;;;;;;4.97;1.73;;;28.50;78.20;;;;;;4960079;28;20194;-78
2022/06/11 06:33:30;;;;;;;2.67;1.60;;;29.30;76.20;;;;;;4960057;28;20811;-77
2022/06/11 06:36:00;;;;;;;2.63;1.33;;;30.70;72.00;;;;;;4960140;28;20261;-77
2022/06/11 06:38:26;;;;;;;7.00;1.27;;;30.30;72.50;;;;;;4959685;28;20629;-78
2022/06/11 06:40:52;;;;;;;7.78;1.50;;;30.60;73.80;;;;;;4959949;28;20237;-78
2022/06/11 06:43:18;;;;;;;6.20;1.60;;;31.40;70.30;;;;;;4960827;28;20182;-78
2022/06/11 06:45:44;;;;;;;2.88;1.45;;;30.70;73.80;;;;;;4960108;28;20570;-79
2022/06/11 06:48:09;;;;;;;6.03;1.35;;;29.70;74.90;;;;;;4959787;29;20185;-79
2022/06/11 06:50:35;;;;;;;2.20;1.20;;;29.70;76.50;;;;;;4960540;29;20245;-79
2022/06/11 06:53:01;;;;;;;3.15;1.42;;;28.90;77.60;;;;;;4961174;28;20185;-79
2022/06/11 06:55:26;;;;;;;2.43;1.40;;;28.80;77.90;;;;;;4960094;28;20189;-80
2022/06/11 06:57:52;;;;;;;5.20;1.47;;;29.00;78.50;;;;;;4958156;29;20792;-79
2022/06/11 07:00:17;;;;;;;3.60;1.63;;;28.60;78.10;;;;;;4958569;29;20175;-79
2022/06/11 07:02:44;;;;;;;3.23;1.50;;;29.00;76.60;;;;;;4960290;29;20178;-80
2022/06/11 07:05:12;;;;;;;5.13;1.40;;;29.80;77.80;;;;;;4959453;28;20245;-80
2022/06/11 07:07:38;;;;;;;8.57;1.33;;;30.70;77.20;;;;;;4964462;28;20410;-80
2022/06/11 07:10:05;;;;;;;4.77;1.30;;;30.10;74.00;;;;;;4983538;28;20456;-80
2022/06/11 07:12:30;;;;;;;1.93;1.27;;;29.80;75.40;;;;;;4978867;28;20441;-79
2022/06/11 07:14:56;;;;;;;4.70;1.10;;;29.80;75.50;;;;;;4976040;28;20487;-78
2022/06/11 07:17:22;;;;;;;4.83;1.47;;;30.50;72.60;;;;;;4976049;28;20209;-79
2022/06/11 07:20:01;;;;;;;3.57;1.60;;;30.30;71.00;;;;;;4976002;28;20166;-79
2022/06/11 07:22:31;;;;;;;2.97;1.10;;;31.20;70.90;;;;;;4975662;28;20194;-79
2022/06/11 07:25:00;;;;;;;8.10;1.57;;;31.50;70.30;;;;;;4975725;28;20409;-79
2022/06/11 07:27:29;;;;;;;4.03;1.20;;;31.80;68.70;;;;;;4974621;28;20440;-78
2022/06/11 07:29:57;;;;;;;3.00;1.60;;;32.50;67.40;;;;;;4974846;28;20637;-79
2022/06/11 07:32:24;;;;;;;4.18;1.55;;;32.80;67.10;;;;;;4960882;28;20222;-78
2022/06/11 07:34:50;;;;;;;6.22;1.30;;;33.30;64.10;;;;;;4955977;28;20182;-79
2022/06/11 07:37:17;;;;;;;1.75;1.50;;;32.80;66.10;;;;;;4955818;29;20209;-78
2022/06/11 07:39:43;;;;;;;2.92;1.65;;;33.20;64.30;;;;;;4955824;28;20173;-77
2022/06/11 07:42:10;;;;;;;9.30;1.63;;;33.40;65.80;;;;;;4955596;29;20304;-79
2022/06/11 07:44:36;;;;;;;2.30;1.45;;;33.30;64.80;;;;;;4955278;29;20253;-79
2022/06/11 07:47:02;;;;;;;6.60;1.38;;;33.50;65.40;;;;;;4954968;29;20182;-78
2022/06/11 07:49:28;;;;;;;1.77;1.40;;;33.70;63.30;;;;;;4955632;28;20210;-78
2022/06/11 07:51:54;;;;;;;9.88;1.65;;;33.90;61.50;;;;;;4955008;28;20674;-79
2022/06/11 07:54:20;;;;;;;3.30;1.20;;;33.90;62.50;;;;;;4973141;28;20236;-79
2022/06/11 07:56:45;;;;;;;3.88;1.35;;;33.70;63.40;;;;;;4975264;28;20202;-79
2022/06/11 07:59:11;;;;;;;3.67;1.15;;;34.20;61.60;;;;;;4974155;28;20188;-80
2022/06/11 08:01:36;;;;;;;3.47;1.60;;;33.90;62.40;;;;;;4958370;28;20613;-79
2022/06/11 08:04:02;;;;;;;6.70;1.92;;;34.20;60.20;;;;;;4955657;29;20178;-79
2022/06/11 08:06:27;;;;;;;5.88;1.45;;;34.20;62.70;;;;;;4955624;28;20709;-79
2022/06/11 08:08:53;;;;;;;2.92;1.10;;;33.40;59.40;;;;;;4953865;29;20179;-80
2022/06/11 08:11:19;;;;;;;4.10;1.30;;;32.80;59.80;;;;;;4955438;29;20229;-79
2022/06/11 08:13:46;;;;;;;2.20;1.23;;;31.70;60.40;;;;;;4955125;29;20261;-78
2022/06/11 08:16:12;;;;;;;9.23;1.73;;;31.60;62.60;;;;;;4953721;29;20213;-78
2022/06/11 08:18:38;;;;;;;3.67;1.30;;;30.80;68.00;;;;;;4955124;29;20410;-78
2022/06/11 08:21:04;;;;;;;7.83;1.47;;;29.40;67.20;;;;;;4955237;29;20198;-79
2022/06/11 08:23:30;;;;;;;4.20;1.50;;;28.30;69.30;;;;;;4955197;29;20302;-78
2022/06/11 08:25:56;;;;;;;4.03;1.60;;;27.40;69.70;;;;;;4953862;29;20453;-79
2022/06/11 08:28:22;;;;;;;2.83;1.20;;;27.00;69.20;;;;;;4954971;29;20176;-77
2022/06/11 08:30:49;;;;;;;2.17;1.27;;;26.90;71.70;;;;;;4955048;29;20190;-78
2022/06/11 08:33:15;;;;;;;3.03;1.27;;;26.30;72.20;;;;;;4954973;29;20903;-78
2022/06/11 08:35:40;;;;;;;2.37;1.27;;;26.10;75.50;;;;;;4954941;29;20418;-78
2022/06/11 08:38:06;;;;;;;3.97;1.30;;;25.90;75.70;;;;;;4954761;29;20170;-77
2022/06/11 08:40:45;;;;;;;1.90;1.30;;;25.90;73.10;;;;;;4954907;29;20229;-78
2022/06/11 08:43:14;;;;;;;3.80;1.53;;;26.00;74.60;;;;;;4954939;29;20594;-78
2022/06/11 08:45:46;;;;;;;5.00;1.33;;;27.50;78.30;;;;;;4954896;29;20410;-78
2022/06/11 08:48:17;;;;;;;3.40;1.40;;;29.30;72.40;;;;;;4954603;29;20429;-77
2022/06/11 08:50:54;;;;;;;2.67;1.40;;;30.40;69.10;;;;;;4954967;29;20430;-77
2022/06/11 08:53:20;;;;;;;3.27;1.20;;;31.00;67.40;;;;;;4955015;29;20406;-78
2022/06/11 08:55:46;;;;;;;1.87;1.30;;;31.10;67.30;;;;;;4954893;29;20894;-78
2022/06/11 08:58:25;;;;;;;2.70;1.37;;;31.70;67.00;;;;;;4954489;29;20476;-78
2022/06/11 09:01:21;;;;;;;3.83;1.30;;;29.60;65.40;;;;;;4954668;29;20555;-79
2022/06/11 09:04:15;;;;;;;3.83;1.30;;;28.30;70.80;;;;;;4954738;29;20399;-78
2022/06/11 09:06:52;;;;;;;6.00;1.80;;;29.80;65.90;;;;;;4954584;29;20402;-78
2022/06/11 09:10:11;;;;;;;2.50;1.17;;;31.00;65.70;;;;;;4954402;29;20878;-78
2022/06/11 09:12:56;;;;;;;5.43;1.20;;;31.40;58.60;;;;;;4894993;29;20429;-78
2022/06/11 09:15:44;;;;;;;2.20;1.27;;;31.90;58.60;;;;;;4954504;28;20433;-80
2022/06/11 09:18:28;;;;;;;3.60;1.20;;;32.40;64.20;;;;;;4953863;28;20399;-79
2022/06/11 09:21:08;;;;;;;2.73;1.30;;;32.10;59.10;;;;;;4953922;29;20779;-78
2022/06/11 09:23:54;;;;;;;3.60;1.50;;;31.60;59.90;;;;;;4954360;29;20391;-78
2022/06/11 09:26:36;;;;;;;2.73;1.17;;;31.00;62.50;;;;;;4954250;29;20452;-79
2022/06/11 09:29:13;;;;;;;1.80;0.97;;;31.00;64.50;;;;;;4954084;29;20458;-78
2022/06/11 09:32:03;;;;;;;7.13;1.07;;;30.30;60.50;;;;;;4954084;29;20429;-78
2022/06/11 09:34:46;;;;;;;3.23;1.10;;;29.00;67.40;;;;;;4954430;29;20398;-78
2022/06/11 09:37:25;;;;;;;3.10;1.20;;;27.90;66.70;;;;;;4954240;29;20449;-79
2022/06/11 09:40:01;;;;;;;14.10;2.20;;;27.20;68.30;;;;;;4954095;29;20875;-78
2022/06/11 09:42:45;;;;;;;11.30;1.80;;;27.00;68.60;;;;;;4954062;29;20503;-78
2022/06/11 09:45:17;;;;;;;25.87;3.00;;;26.30;69.90;;;;;;4954060;29;20756;-78
2022/06/11 09:48:07;;;;;;;4.93;0.93;;;25.90;69.60;;;;;;4952536;29;20913;-78
2022/06/11 09:51:00;;;;;;;2.70;1.23;;;25.70;71.60;;;;;;4953927;29;20458;-78
2022/06/11 09:53:41;;;;;;;3.83;1.10;;;25.80;72.20;;;;;;4953938;29;20414;-78
2022/06/11 09:56:12;;;;;;;3.33;1.13;;;26.10;74.30;;;;;;4953992;29;20445;-79
2022/06/11 09:58:52;;;;;;;3.13;1.10;;;26.90;75.70;;;;;;4953788;29;20406;-78
2022/06/11 10:01:23;;;;;;;4.87;1.40;;;27.70;73.10;;;;;;4953889;29;20422;-78
2022/06/11 10:03:55;;;;;;;5.80;1.20;;;28.80;75.40;;;;;;4952731;29;20418;-78
2022/06/11 10:06:40;;;;;;;2.57;1.13;;;29.70;66.60;;;;;;4952635;29;20421;-79
2022/06/11 10:09:31;;;;;;;3.53;1.30;;;29.10;66.70;;;;;;4953684;29;20465;-78
2022/06/11 10:12:12;;;;;;;1.83;1.20;;;27.80;69.40;;;;;;4952463;29;20870;-80
2022/06/11 10:14:50;;;;;;;4.10;1.40;;;27.50;74.00;;;;;;4954039;29;20398;-78
2022/06/11 10:17:34;;;;;;;4.13;1.67;;;27.80;72.40;;;;;;4955883;29;20458;-78
2022/06/11 10:20:35;;;;;;;1.90;1.00;;;27.80;72.30;;;;;;4956096;29;20965;-79
2022/06/11 10:23:34;;;;;;;4.40;1.00;;;28.30;75.80;;;;;;4950699;29;20440;-78
2022/06/11 10:26:08;;;;;;;2.60;1.10;;;29.10;66.00;;;;;;4953685;29;20443;-80
2022/06/11 10:29:11;;;;;;;1.57;0.97;;;29.40;66.80;;;;;;4953464;29;20434;-80
2022/06/11 10:31:59;;;;;;;4.77;1.23;;;29.80;64.30;;;;;;4956242;28;20437;-78
2022/06/11 10:34:26;;;;;;;1.77;1.03;;;30.20;62.60;;;;;;4957335;29;20813;-78
2022/06/11 10:37:00;;;;;;;1.67;0.87;;;29.70;66.30;;;;;;4957240;29;20553;-79
2022/06/11 10:39:37;;;;;;;3.63;1.20;;;29.70;64.20;;;;;;4956997;29;20406;-79
2022/06/11 10:42:09;;;;;;;3.10;1.17;;;30.00;66.70;;;;;;4957048;29;20449;-78
2022/06/11 10:44:39;;;;;;;1.93;1.10;;;30.10;63.90;;;;;;4957195;29;20410;-78
2022/06/11 10:47:36;;;;;;;1.67;1.07;;;29.70;66.90;;;;;;4957180;29;20910;-79
2022/06/11 10:50:11;;;;;;;2.03;1.17;;;29.90;69.60;;;;;;4957046;29;20451;-78
2022/06/11 10:53:06;;;;;;;3.03;1.27;;;30.70;66.40;;;;;;4956954;29;20437;-79
2022/06/11 10:55:59;;;;;;;6.43;1.30;;;31.20;64.50;;;;;;4956889;29;20414;-78
2022/06/11 10:58:30;;;;;;;2.77;1.47;;;31.00;62.40;;;;;;4956735;29;20405;-78
2022/06/11 11:01:25;;;;;;;3.47;1.30;;;31.40;71.60;;;;;;4956856;29;20426;-78
2022/06/11 11:04:13;;;;;;;3.87;1.47;;;31.70;62.60;;;;;;4956812;29;20858;-80
2022/06/11 11:06:41;;;;;;;5.40;1.33;;;31.50;60.90;;;;;;4956755;29;21154;-78
2022/06/11 11:09:13;;;;;;;2.43;1.30;;;31.20;63.60;;;;;;4955278;29;20418;-80
2022/06/11 11:11:48;;;;;;;2.37;1.20;;;31.30;63.60;;;;;;4955284;29;20440;-78
2022/06/11 11:14:41;;;;;;;9.83;1.40;;;31.50;69.90;;;;;;4956518;29;20914;-78
2022/06/11 11:17:18;;;;;;;3.37;1.37;;;30.40;63.40;;;;;;4956457;29;20442;-79
2022/06/11 11:20:29;;;;;;;5.63;1.10;;;29.10;66.20;;;;;;4956327;29;20413;-78
2022/06/11 11:22:37;;;;;;;2.00;1.20;;;29.80;68.10;;;;;;4956153;29;20960;-79
2022/06/11 11:25:11;;;;;;;3.37;1.30;;;30.00;68.90;;;;;;4955113;29;20936;-78
2022/06/11 11:27:44;;;;;;;5.90;1.40;;;30.10;63.00;;;;;;4956068;29;20425;-78
2022/06/11 11:30:15;;;;;;;2.77;1.27;;;29.20;65.60;;;;;;4956249;29;20886;-78
2022/06/11 11:32:43;;;;;;;3.67;1.20;;;29.10;68.40;;;;;;4956255;29;20445;-78
2022/06/11 11:35:19;;;;;;;4.80;1.30;;;29.20;68.50;;;;;;4956106;29;20433;-78
2022/06/11 11:37:55;;;;;;;3.83;1.10;;;30.10;72.10;;;;;;4956227;29;20517;-78
2022/06/11 11:40:47;;;;;;;10.33;1.40;;;30.50;66.60;;;;;;4955809;29;20410;-78
2022/06/11 11:43:15;;;;;;;1.80;1.10;;;29.80;65.00;;;;;;4965514;28;20426;-81
2022/06/11 11:46:16;;;;;;;3.83;1.30;;;28.90;67.70;;;;;;4958861;29;20453;-78
2022/06/11 11:48:48;;;;;;;2.77;1.23;;;28.60;69.60;;;;;;4939292;29;20428;-78
2022/06/11 11:51:27;;;;;;;5.27;1.20;;;28.40;71.10;;;;;;4957245;29;21132;-78
2022/06/11 11:54:13;;;;;;;3.30;2.10;;;28.70;70.60;;;;;;4958323;29;20492;-78
2022/06/11 11:56:41;;;;;;;2.50;1.27;;;28.40;67.60;;;;;;4958218;29;20472;-78
2022/06/11 11:59:21;;;;;;;3.33;1.40;;;27.50;67.50;;;;;;4956916;29;20406;-78
2022/06/11 12:01:49;;;;;;;13.27;1.10;;;27.40;70.90;;;;;;4957359;29;20488;-78
2022/06/11 12:04:32;;;;;;;5.30;1.30;;;27.40;70.20;;;;;;4956600;29;20418;-78
2022/06/11 12:07:03;;;;;;;4.20;1.23;;;27.30;71.60;;;;;;4957995;29;20999;-78
2022/06/11 12:09:48;;;;;;;2.13;1.13;;;26.70;70.30;;;;;;4957165;29;20425;-78
2022/06/11 12:12:17;;;;;;;3.83;1.40;;;26.20;70.60;;;;;;4955203;29;20445;-77
2022/06/11 12:14:49;;;;;;;6.50;1.60;;;25.80;71.40;;;;;;4956462;29;20429;-77
2022/06/11 12:17:34;;;;;;;3.80;1.30;;;26.00;73.10;;;;;;4956387;29;20497;-78
2022/06/11 12:20:07;;;;;;;2.70;1.20;;;26.00;73.60;;;;;;4954863;29;20425;-78
2022/06/11 12:22:42;;;;;;;3.50;1.30;;;25.50;72.40;;;;;;4956377;29;20868;-77
2022/06/11 12:25:21;;;;;;;2.77;1.23;;;25.40;72.90;;;;;;4956405;29;20412;-78
2022/06/11 12:27:48;;;;;;;10.23;1.47;;;25.60;75.00;;;;;;4955958;29;20437;-78
2022/06/11 12:30:23;;;;;;;2.07;1.10;;;25.90;73.20;;;;;;4956303;29;20425;-78
2022/06/11 12:32:49;;;;;;;4.23;1.10;;;27.50;73.80;;;;;;4956362;29;20429;-78
2022/06/11 12:35:35;;;;;;;2.60;1.10;;;28.30;72.00;;;;;;4956505;29;20422;-78
2022/06/11 12:38:14;;;;;;;2.80;1.60;;;28.20;70.30;;;;;;4956259;29;20296;-78
2022/06/11 12:40:55;;;;;;;7.53;1.20;;;28.60;71.00;;;;;;4961780;29;20950;-79
2022/06/11 12:43:36;;;;;;;3.17;1.20;;;28.00;68.90;;;;;;4966632;29;20422;-79
2022/06/11 12:46:35;;;;;;;3.23;1.37;;;27.60;70.00;;;;;;4967899;29;20418;-79
2022/06/11 12:49:17;;;;;;;5.53;1.30;;;27.20;71.20;;;;;;4965792;29;20417;-78
2022/06/11 12:52:26;;;;;;;3.23;1.10;;;27.40;70.40;;;;;;4966867;29;20445;-78
2022/06/11 12:55:39;;;;;;;3.33;1.20;;;27.90;67.80;;;;;;4966140;28;20429;-78
2022/06/11 12:58:26;;;;;;;2.20;1.07;;;28.90;69.20;;;;;;4899783;29;20475;-78
2022/06/11 13:01:03;;;;;;;6.40;2.13;;;29.50;65.70;;;;;;4899083;29;20436;-78
2022/06/11 13:03:44;;;;;;;6.50;1.10;;;29.20;65.90;;;;;;4933473;29;20517;-78
2022/06/11 13:06:25;;;;;;;3.80;1.37;;;28.80;65.30;;;;;;4956127;29;20417;-78
2022/06/11 13:09:01;;;;;;;1.67;1.10;;;28.80;68.40;;;;;;4957840;29;20852;-78
2022/06/11 13:11:53;;;;;;;4.50;1.17;;;29.30;68.50;;;;;;4956943;29;20441;-79
2022/06/11 13:14:46;;;;;;;3.50;1.70;;;29.20;67.70;;;;;;4957825;29;20505;-78
2022/06/11 13:17:37;;;;;;;4.10;1.37;;;29.60;63.40;;;;;;4956981;29;20528;-78
2022/06/11 13:20:21;;;;;;;4.23;1.47;;;29.60;67.50;;;;;;4956840;29;20398;-78
2022/06/11 13:23:00;;;;;;;3.97;1.10;;;29.00;65.70;;;;;;4956621;29;20807;-78
2022/06/11 13:25:51;;;;;;;6.10;1.10;;;28.90;69.30;;;;;;4956321;29;20406;-78
2022/06/11 13:28:20;;;;;;;5.90;1.33;;;28.80;65.70;;;;;;4955033;29;20889;-78
2022/06/11 13:31:09;;;;;;;3.27;1.10;;;28.40;65.50;;;;;;4955253;29;20496;-78
2022/06/11 13:34:05;;;;;;;4.67;1.63;;;28.30;67.20;;;;;;4955403;29;20413;-78
2022/06/11 13:37:10;;;;;;;6.20;1.30;;;28.20;65.10;;;;;;4955107;29;20454;-78
2022/06/11 13:39:41;;;;;;;3.13;1.40;;;28.50;66.30;;;;;;4953164;29;20425;-78
2022/06/11 13:42:17;;;;;;;2.37;1.20;;;28.50;66.90;;;;;;4956469;29;20486;-78
2022/06/11 13:44:59;;;;;;;2.10;0.97;;;28.80;68.00;;;;;;4956355;29;20416;-78
2022/06/11 13:47:33;;;;;;;4.00;1.40;;;28.20;68.40;;;;;;4955962;29;20425;-77
2022/06/11 13:50:31;;;;;;;3.30;1.27;;;27.40;67.70;;;;;;4955271;29;20999;-78
2022/06/11 13:56:23;;;;;;;4.00;1.07;;;27.70;68.30;;;;;;4956057;29;20473;-78
2022/06/11 13:59:23;;;;;;;3.20;1.47;;;27.60;65.30;;;;;;4959845;29;20486;-78
2022/06/11 14:02:26;;;;;;;2.20;1.30;;;28.30;70.80;;;;;;4958618;29;20437;-78
2022/06/11 14:04:58;;;;;;;4.90;1.43;;;28.30;68.90;;;;;;4959046;28;20405;-78
2022/06/11 14:07:27;;;;;;;2.10;1.00;;;28.00;68.90;;;;;;4962724;29;20894;-78
2022/06/11 14:10:22;;;;;;;2.67;1.50;;;27.90;68.50;;;;;;4958016;29;20750;-77
2022/06/11 14:12:49;;;;;;;3.83;1.27;;;28.10;67.60;;;;;;4965331;29;20408;-78
2022/06/11 14:15:25;;;;;;;7.23;1.23;;;28.70;68.70;;;;;;4966896;29;20406;-78
2022/06/11 14:17:54;;;;;;;3.07;1.57;;;28.80;68.30;;;;;;4962323;29;20976;-78
2022/06/11 14:20:31;;;;;;;2.80;1.20;;;28.40;67.20;;;;;;4958343;29;20921;-78
2022/06/11 14:23:09;;;;;;;4.13;1.50;;;27.80;67.00;;;;;;4958071;29;20437;-79
2022/06/11 14:25:45;;;;;;;1.63;1.17;;;27.10;70.60;;;;;;4958016;29;20413;-78
2022/06/11 14:28:14;;;;;;;3.33;1.60;;;27.30;69.20;;;;;;4956879;29;20418;-78
2022/06/11 14:30:45;;;;;;;4.23;1.37;;;26.60;69.40;;;;;;4957975;29;21130;-78
2022/06/11 14:33:11;;;;;;;2.70;1.83;;;26.70;73.80;;;;;;4957744;29;20509;-78
2022/06/11 14:35:47;;;;;;;1.80;1.20;;;26.90;71.40;;;;;;4957968;29;20505;-78
2022/06/11 14:38:30;;;;;;;9.00;1.30;;;26.80;70.60;;;;;;4957814;29;20182;-78
2022/06/11 14:41:08;;;;;;;3.03;1.40;;;26.80;70.60;;;;;;4958071;29;20426;-78
2022/06/11 14:43:52;;;;;;;4.47;1.63;;;27.40;71.70;;;;;;4958422;29;20414;-78
2022/06/11 14:46:32;;;;;;;4.93;1.50;;;27.20;73.30;;;;;;4958099;29;20398;-78
2022/06/11 14:49:03;;;;;;;10.53;1.60;;;27.30;68.60;;;;;;4957466;29;20405;-78
2022/06/11 14:51:32;;;;;;;3.93;1.20;;;27.70;71.10;;;;;;4957226;29;20942;-78
2022/06/11 14:54:26;;;;;;;3.50;1.30;;;28.30;69.40;;;;;;4958254;29;20402;-78
2022/06/11 14:57:13;;;;;;;3.97;1.60;;;27.50;70.00;;;;;;4957731;29;21000;-78
2022/06/11 15:00:26;;;;;;;3.20;1.17;;;27.10;71.40;;;;;;4957652;29;20410;-78
2022/06/11 15:03:24;;;;;;;2.87;1.30;;;27.20;71.20;;;;;;4956460;29;20414;-78
2022/06/11 15:06:29;;;;;;;1.40;1.10;;;26.90;71.10;;;;;;4962452;28;20409;-77
2022/06/11 15:09:03;;;;;;;3.37;1.33;;;27.40;71.80;;;;;;4967429;28;20413;-77
2022/06/11 15:11:34;;;;;;;5.17;1.30;;;26.80;68.60;;;;;;4972706;28;21222;-77
2022/06/11 15:14:38;;;;;;;3.70;1.10;;;26.20;74.00;;;;;;4974670;28;20479;-78
2022/06/11 15:17:12;;;;;;;5.83;1.30;;;26.20;73.90;;;;;;4974522;28;20453;-78
2022/06/11 15:19:45;;;;;;;3.30;1.33;;;26.40;75.60;;;;;;4975121;28;20444;-78
2022/06/11 15:22:20;;;;;;;5.40;1.30;;;26.80;71.90;;;;;;4958563;28;20485;-78
2022/06/11 15:24:54;;;;;;;5.23;1.50;;;27.20;72.20;;;;;;4969632;28;20405;-79
2022/06/11 15:27:25;;;;;;;2.53;1.53;;;27.20;69.60;;;;;;4975660;28;20389;-80
2022/06/11 15:29:50;;;;;;;1.63;1.17;;;27.10;69.40;;;;;;4956330;28;20486;-78
2022/06/11 15:32:25;;;;;;;4.47;1.50;;;26.90;70.00;;;;;;4955517;28;20525;-79
2022/06/11 15:34:50;;;;;;;5.17;1.80;;;27.00;71.10;;;;;;4956224;28;20650;-79
2022/06/11 15:37:15;;;;;;;7.30;1.87;;;26.90;72.20;;;;;;4966772;28;20471;-79
2022/06/11 15:39:46;;;;;;;3.33;1.37;;;27.00;71.40;;;;;;4974658;28;20173;-79
2022/06/11 15:42:32;;;;;;;5.20;1.30;;;27.50;74.30;;;;;;4974009;28;20223;-78
2022/06/11 15:44:59;;;;;;;7.00;1.60;;;27.10;71.40;;;;;;4974372;28;20413;-78
2022/06/11 15:47:27;;;;;;;3.40;1.70;;;27.20;69.40;;;;;;4975284;28;20420;-83
2022/06/11 15:50:02;;;;;;;2.33;1.20;;;27.10;73.10;;;;;;4975320;28;20413;-79
2022/06/11 15:52:46;;;;;;;3.00;1.20;;;27.20;73.60;;;;;;4975332;28;20444;-78
2022/06/11 15:55:37;;;;;;;7.10;2.00;;;27.10;69.00;;;;;;4975188;28;20435;-78
2022/06/11 15:58:23;;;;;;;4.60;1.53;;;26.70;71.10;;;;;;4973821;28;20456;-79
2022/06/11 16:00:53;;;;;;;3.37;1.07;;;26.60;71.90;;;;;;4974968;28;20420;-79
2022/06/11 16:03:36;;;;;;;5.67;1.90;;;26.50;71.10;;;;;;4975073;28;20417;-78
2022/06/11 16:06:08;;;;;;;3.60;1.30;;;26.20;72.40;;;;;;4975012;28;20457;-80
2022/06/11 16:08:48;;;;;;;2.80;1.30;;;25.70;73.30;;;;;;4974799;28;20394;-79
2022/06/11 16:11:18;;;;;;;2.70;1.20;;;25.60;73.60;;;;;;4974871;28;20773;-80
2022/06/11 16:13:48;;;;;;;7.17;1.00;;;25.30;73.70;;;;;;4973519;28;20468;-78
2022/06/11 16:16:27;;;;;;;3.10;1.73;;;24.90;75.40;;;;;;4973719;28;20819;-79
2022/06/11 16:19:20;;;;;;;5.03;1.47;;;24.50;75.30;;;;;;4974863;28;20453;-78
2022/06/11 16:22:06;;;;;;;3.80;1.80;;;24.50;76.30;;;;;;4974780;28;20460;-80
2022/06/11 16:24:43;;;;;;;5.53;1.63;;;24.20;76.70;;;;;;4977968;28;20441;-78
2022/06/11 16:27:13;;;;;;;5.17;1.67;;;24.10;79.10;;;;;;4974981;28;20417;-78
2022/06/11 16:29:55;;;;;;;2.37;1.23;;;24.40;77.50;;;;;;4959896;28;20420;-81
2022/06/11 16:32:21;;;;;;;3.30;1.40;;;24.90;76.40;;;;;;4958993;28;20438;-78
2022/06/11 16:34:48;;;;;;;6.33;1.60;;;25.30;76.80;;;;;;4959452;28;20422;-78
2022/06/11 16:37:20;;;;;;;3.33;1.60;;;25.40;74.00;;;;;;4975423;28;20523;-78
2022/06/11 16:39:46;;;;;;;6.13;1.70;;;25.40;74.60;;;;;;4975024;28;20504;-78
2022/06/11 16:44:58;;;;;;;3.50;1.43;;;25.30;76.40;;;;;;4974698;28;20433;-77
2022/06/11 16:47:33;;;;;;;5.50;1.20;;;25.10;77.40;;;;;;4974163;28;20894;-78
2022/06/11 16:58:59;;;;;;;4.17;1.90;;;25.30;77.40;;;;;;4974663;28;20452;-81
2022/06/11 17:01:28;;;;;;;4.10;1.40;;;25.20;75.10;;;;;;4955909;28;20477;-81
2022/06/11 17:04:00;;;;;;;5.37;2.03;;;25.20;77.70;;;;;;4966512;28;20513;-79
2022/06/11 17:06:38;;;;;;;2.30;1.20;;;24.90;77.20;;;;;;4978027;28;20750;-81
2022/06/11 17:09:25;;;;;;;8.60;7.70;;;24.70;76.50;;;;;;4978076;28;20429;-81
2022/06/11 17:12:15;;;;;;;763.17;548.87;;;24.60;76.20;;;;;;4977589;28;20440;-79
2022/06/11 17:14:46;;;;;;;21.93;15.50;;;24.60;80.30;;;;;;4977141;28;20437;-80
2022/06/11 17:17:16;;;;;;;3.00;2.10;;;24.50;77.80;;;;;;4977325;28;20453;-80
2022/06/11 17:19:49;;;;;;;2.83;2.60;;;24.60;76.60;;;;;;4975529;28;20421;-79
2022/06/11 17:22:14;;;;;;;2.20;1.50;;;24.40;77.90;;;;;;4978339;28;20467;-80
2022/06/11 17:24:40;;;;;;;8.63;5.97;;;24.30;80.00;;;;;;4972131;28;20500;-79
2022/06/11 17:27:28;;;;;;;6.00;2.60;;;24.30;79.70;;;;;;4966824;28;20181;-80
2022/06/11 17:29:54;;;;;;;5.13;1.93;;;24.30;81.30;;;;;;4967349;28;20189;-80
2022/06/11 17:32:22;;;;;;;4.43;1.90;;;24.20;79.90;;;;;;4972592;28;20536;-80
2022/06/11 17:34:49;;;;;;;4.17;1.60;;;24.10;81.00;;;;;;4976127;28;20417;-80
2022/06/11 17:37:23;;;;;;;3.20;1.50;;;23.80;80.10;;;;;;4977729;28;20501;-81
2022/06/11 17:39:48;;;;;;;6.13;1.53;;;23.50;80.50;;;;;;4976753;28;20414;-79
2022/06/11 17:42:14;;;;;;;2.80;1.20;;;23.40;82.00;;;;;;4977061;28;20445;-81
2022/06/11 17:44:40;;;;;;;4.80;1.87;;;23.50;83.40;;;;;;4977271;28;20178;-80
2022/06/11 17:47:10;;;;;;;5.70;1.60;;;23.40;85.30;;;;;;4978424;28;20179;-80
2022/06/11 17:49:42;;;;;;;6.03;1.70;;;23.30;82.70;;;;;;4978245;28;20420;-81
2022/06/11 17:52:27;;;;;;;4.50;1.57;;;23.20;82.50;;;;;;4977499;28;20442;-80
2022/06/11 17:54:55;;;;;;;4.10;1.80;;;23.20;82.50;;;;;;4977652;28;20446;-79
2022/06/11 17:57:22;;;;;;;4.20;1.60;;;22.90;82.90;;;;;;4977416;28;20480;-79
2022/06/11 17:59:47;;;;;;;3.27;1.50;;;22.60;82.80;;;;;;4978551;28;20442;-78
2022/06/11 18:02:28;;;;;;;3.13;1.43;;;22.40;83.90;;;;;;4979192;28;20429;-79
2022/06/11 18:04:55;;;;;;;3.70;1.47;;;22.10;84.70;;;;;;4981219;28;20166;-81
2022/06/11 18:07:21;;;;;;;4.90;2.10;;;21.80;87.00;;;;;;4982898;28;20501;-80
2022/06/11 18:09:47;;;;;;;2.80;1.50;;;21.30;88.00;;;;;;4976370;28;20437;-80
2022/06/11 18:12:12;;;;;;;9.00;1.67;;;21.30;91.80;;;;;;4975634;28;20737;-80
2022/06/11 18:14:38;;;;;;;4.20;1.50;;;21.10;89.70;;;;;;4975972;28;20533;-79
2022/06/11 18:17:04;;;;;;;4.70;1.60;;;21.00;90.30;;;;;;4972163;28;20210;-78
2022/06/11 18:19:30;;;;;;;4.03;2.47;;;21.00;91.30;;;;;;4966055;28;20191;-78
2022/06/11 18:27:23;;;;;;;2.97;1.43;;;20.70;94.10;;;;;;4967398;28;20837;-78
2022/06/11 18:29:49;;;;;;;3.37;1.53;;;20.50;95.10;;;;;;4956256;29;20426;-80
2022/06/11 19:13:13;;;;;;;4.10;1.70;;;18.60;96.30;;;;;;4791851;30;20515;-81
2022/06/11 19:15:39;;;;;;;3.33;1.57;;;18.50;96.30;;;;;;4831782;29;20506;-77
2022/06/11 19:18:05;;;;;;;4.43;1.60;;;18.50;96.30;;;;;;4895391;29;20469;-77
2022/06/11 19:20:34;;;;;;;4.17;1.50;;;18.50;96.30;;;;;;4940571;28;20476;-78
2022/06/11 19:23:02;;;;;;;3.83;1.70;;;18.50;96.30;;;;;;4958266;28;20788;-77
2022/06/11 19:25:33;;;;;;;4.50;1.40;;;18.40;96.30;;;;;;4975581;28;20410;-78
2022/06/11 19:28:00;;;;;;;4.00;1.37;;;18.30;96.30;;;;;;4974798;28;20922;-80
2022/06/11 19:30:26;;;;;;;8.00;2.27;;;18.30;96.30;;;;;;4958203;28;21008;-77
2022/06/11 19:32:52;;;;;;;2.10;1.50;;;18.20;96.30;;;;;;4958212;28;20512;-77